createdAt,value
2019-02-16T15:12:57.714Z,14.34
2019-02-16T15:13:57.703Z,14.16
2019-02-16T15:14:57.786Z,14.12
2019-02-16T15:15:57.682Z,14.04
2019-02-16T15:16:57.674Z,13.81
2019-02-16T15:17:57.661Z,13.88
2019-02-16T15:18:57.654Z,13.80
2019-02-16T15:19:57.647Z,13.81
2019-02-16T15:20:57.638Z,13.65
2019-02-16T15:21:57.625Z,13.69
2019-02-16T15:22:57.609Z,13.69
2019-02-16T15:23:57.599Z,13.56
2019-02-16T15:24:57.587Z,13.54
2019-02-16T15:26:01.113Z,13.49
2019-02-16T15:26:57.577Z,13.51
2019-02-16T15:27:57.560Z,13.41
2019-02-16T15:28:57.551Z,13.32
2019-02-16T15:29:57.533Z,13.32
2019-02-16T15:30:57.527Z,13.29
2019-02-16T15:31:57.512Z,13.32
2019-02-16T15:32:57.543Z,13.30
2019-02-16T15:33:57.493Z,13.22
2019-02-16T15:34:57.480Z,13.20
2019-02-16T15:35:57.480Z,13.11
2019-02-16T15:36:57.461Z,13.20
2019-02-16T15:37:57.447Z,13.18
2019-02-16T15:38:57.447Z,13.14
2019-02-16T15:39:57.425Z,13.20
2019-02-16T15:40:57.416Z,13.04
2019-02-16T15:41:57.403Z,13.06
2019-02-16T15:42:57.394Z,13.04
2019-02-16T15:43:57.391Z,13.07
2019-02-16T15:44:57.381Z,12.97
2019-02-16T15:45:57.394Z,13.03
2019-02-16T15:46:57.349Z,13.03
2019-02-16T15:47:57.339Z,12.96
2019-02-16T15:48:57.328Z,13.02
2019-02-16T15:49:57.316Z,12.99
2019-02-16T15:50:57.323Z,12.95
2019-02-16T15:51:57.297Z,12.88
2019-02-16T15:52:57.284Z,12.87
2019-02-16T15:53:57.273Z,12.97
2019-02-16T15:54:57.262Z,12.87
2019-02-16T15:55:57.250Z,12.87
2019-02-16T15:56:57.275Z,12.85
2019-02-16T15:57:57.230Z,12.74
2019-02-16T15:58:57.219Z,12.81
2019-02-16T15:59:57.225Z,12.85
2019-02-16T16:00:57.231Z,12.63
2019-02-16T16:01:57.253Z,12.70
2019-02-16T16:02:57.184Z,12.70
2019-02-16T16:03:57.178Z,12.77
2019-02-16T16:04:57.151Z,12.66
2019-02-16T16:05:57.143Z,12.66
2019-02-16T16:06:57.130Z,12.52
2019-02-16T16:07:57.119Z,12.51
2019-02-16T16:08:59.097Z,12.52
2019-02-16T16:09:57.099Z,12.46
2019-02-16T16:10:57.088Z,12.46
2019-02-16T16:11:57.078Z,12.39
2019-02-16T16:12:57.067Z,12.45
2019-02-16T16:13:57.059Z,12.44
2019-02-16T16:14:57.055Z,12.23
2019-02-16T16:15:57.034Z,12.29
2019-02-16T16:16:57.024Z,12.31
2019-02-16T16:17:57.011Z,12.23
2019-02-16T16:18:57.001Z,12.24
2019-02-16T16:19:56.990Z,12.23
2019-02-16T16:20:56.993Z,12.15
2019-02-16T16:21:56.969Z,12.20
2019-02-16T16:22:56.958Z,12.13
2019-02-16T16:23:56.951Z,12.11
2019-02-16T16:24:56.937Z,12.06
2019-02-16T16:25:56.926Z,12.04
2019-02-16T16:26:56.926Z,11.87
2019-02-16T16:27:56.911Z,11.90
2019-02-16T16:29:00.526Z,11.85
2019-02-16T16:29:56.882Z,11.80
2019-02-16T16:30:56.872Z,11.96
2019-02-16T16:31:56.861Z,11.83
2019-02-16T16:32:56.862Z,11.83
2019-02-16T16:33:56.840Z,11.77
2019-02-16T16:34:56.829Z,11.70
2019-02-16T16:35:56.817Z,11.71
2019-02-16T16:36:56.807Z,11.67
2019-02-16T16:37:56.796Z,11.71
2019-02-16T16:38:56.797Z,11.62
2019-02-16T16:39:56.774Z,11.61
2019-02-16T16:40:56.763Z,11.56
2019-02-16T16:41:56.752Z,11.46
2019-02-16T16:42:56.742Z,11.38
2019-02-16T16:43:56.731Z,11.39
2019-02-16T16:44:56.739Z,11.35
2019-02-16T16:45:56.708Z,11.38
2019-02-16T16:46:56.697Z,11.34
2019-02-16T16:47:56.691Z,11.28
2019-02-16T16:48:56.674Z,11.36
2019-02-16T16:49:56.664Z,11.24
2019-02-16T16:50:56.678Z,11.20
2019-02-16T16:51:56.643Z,11.17
2019-02-16T16:52:56.633Z,11.19
2019-02-16T16:53:56.621Z,11.13
2019-02-16T16:54:56.610Z,11.16
2019-02-16T16:55:56.599Z,11.16
2019-02-16T16:56:56.605Z,11.20
2019-02-16T16:57:56.577Z,11.13
2019-02-16T16:58:56.568Z,11.03
2019-02-16T16:59:56.558Z,11.03
2019-02-16T17:00:56.545Z,11.03
2019-02-16T17:01:56.534Z,11.02
2019-02-16T17:02:56.533Z,10.92
2019-02-16T17:03:56.516Z,10.92
2019-02-16T17:04:56.502Z,10.92
2019-02-16T17:05:56.491Z,10.91
2019-02-16T17:06:56.482Z,10.91
2019-02-16T17:07:56.473Z,10.91
2019-02-16T17:08:56.472Z,10.84
2019-02-16T17:09:56.447Z,10.78
2019-02-16T17:10:57.828Z,10.86
2019-02-16T17:11:56.426Z,10.84
2019-02-16T17:12:56.418Z,10.80
2019-02-16T17:13:56.414Z,10.73
2019-02-16T17:14:56.403Z,10.76
2019-02-16T17:15:56.382Z,10.78
2019-02-16T17:16:56.372Z,10.78
2019-02-16T17:17:56.362Z,10.74
2019-02-16T17:18:56.352Z,10.80
2019-02-16T17:19:56.343Z,10.65
2019-02-16T17:20:56.339Z,10.65
2019-02-16T17:21:56.316Z,10.59
2019-02-16T17:22:56.306Z,10.56
2019-02-16T17:23:56.294Z,10.46
2019-02-16T17:24:56.283Z,10.40
2019-02-16T17:25:56.274Z,10.36
2019-02-16T17:26:56.274Z,10.36
2019-02-16T17:27:56.252Z,10.28
2019-02-16T17:28:56.241Z,10.24
2019-02-16T17:29:56.229Z,10.32
2019-02-16T17:30:56.220Z,10.18
2019-02-16T17:31:56.208Z,10.22
2019-02-16T17:32:56.224Z,10.24
2019-02-16T17:33:56.190Z,10.25
2019-02-16T17:34:56.500Z,10.09
2019-02-16T17:35:56.165Z,10.12
2019-02-16T17:36:56.157Z,10.07
2019-02-16T17:37:56.147Z,10.07
2019-02-16T17:38:56.148Z,10.04
2019-02-16T17:39:56.316Z,9.99
2019-02-16T17:40:56.112Z,9.96
2019-02-16T17:41:56.121Z,9.82
2019-02-16T17:42:56.203Z,9.83
2019-02-16T17:43:56.169Z,9.73
2019-02-16T17:44:56.125Z,9.70
2019-02-16T17:45:56.059Z,9.75
2019-02-16T17:46:56.053Z,9.78
2019-02-16T17:47:56.039Z,9.73
2019-02-16T17:48:56.046Z,9.75
2019-02-16T17:49:56.016Z,9.61
2019-02-16T17:50:56.019Z,9.66
2019-02-16T17:51:56.011Z,9.53
2019-02-16T17:52:55.987Z,9.60
2019-02-16T17:53:55.977Z,9.57
2019-02-16T17:54:55.962Z,9.56
2019-02-16T17:55:55.953Z,9.46
2019-02-16T17:56:55.971Z,9.49
2019-02-16T17:57:55.948Z,9.49
2019-02-16T17:58:55.955Z,9.45
2019-02-16T17:59:55.947Z,9.43
2019-02-16T18:00:55.899Z,9.39
2019-02-16T18:01:55.886Z,9.35
2019-02-16T18:02:55.884Z,9.31
2019-02-16T18:03:55.864Z,9.34
2019-02-16T18:04:55.853Z,9.23
2019-02-16T18:05:55.842Z,9.21
2019-02-16T18:06:55.834Z,9.20
2019-02-16T18:07:55.822Z,9.27
2019-02-16T18:08:55.823Z,9.20
2019-02-16T18:09:55.809Z,9.18
2019-02-16T18:10:55.794Z,9.21
2019-02-16T18:11:55.778Z,9.18
2019-02-16T18:12:55.793Z,9.13
2019-02-16T18:13:55.756Z,9.09
2019-02-16T18:14:55.815Z,9.20
2019-02-16T18:15:55.732Z,9.15
2019-02-16T18:16:55.729Z,9.15
2019-02-16T18:17:55.767Z,9.16
2019-02-16T18:18:55.701Z,9.16
2019-02-16T18:19:55.874Z,9.18
2019-02-16T18:20:55.691Z,9.09
2019-02-16T18:21:55.672Z,9.09
2019-02-16T18:22:55.656Z,9.05
2019-02-16T18:23:55.647Z,9.05
2019-02-16T18:24:55.652Z,8.97
2019-02-16T18:25:55.626Z,8.91
2019-02-16T18:26:56.796Z,8.94
2019-02-16T18:27:55.601Z,8.94
2019-02-16T18:28:57.530Z,8.99
2019-02-16T18:29:55.579Z,8.90
2019-02-16T18:30:55.570Z,8.87
2019-02-16T18:31:55.564Z,8.87
2019-02-16T18:32:55.557Z,8.83
2019-02-16T18:33:55.551Z,8.75
2019-02-16T18:34:55.539Z,8.79
2019-02-16T18:35:55.528Z,8.71
2019-02-16T18:36:55.504Z,8.65
2019-02-16T18:37:55.508Z,8.66
2019-02-16T18:38:55.492Z,8.62
2019-02-16T18:39:55.479Z,8.55
2019-02-16T18:40:55.462Z,8.60
2019-02-16T18:41:55.450Z,8.50
2019-02-16T18:42:55.454Z,8.62
2019-02-16T18:43:55.432Z,8.57
2019-02-16T18:44:55.428Z,8.42
2019-02-16T18:45:55.407Z,8.42
2019-02-16T18:46:55.397Z,8.48
2019-02-16T18:47:55.398Z,8.47
2019-02-16T18:48:55.380Z,8.42
2019-02-16T18:49:55.367Z,8.47
2019-02-16T18:50:55.365Z,8.42
2019-02-16T18:51:55.362Z,8.33
2019-02-16T18:52:55.333Z,8.21
2019-02-16T18:53:55.326Z,8.21
2019-02-16T18:54:55.312Z,8.22
2019-02-16T18:55:55.320Z,8.14
2019-02-16T18:56:55.303Z,8.11
2019-02-16T18:57:55.283Z,8.11
2019-02-16T18:58:55.290Z,8.15
2019-02-16T18:59:55.264Z,8.07
2019-02-16T19:00:55.253Z,8.07
2019-02-16T19:01:55.259Z,8.04
2019-02-16T19:02:55.241Z,8.04
2019-02-16T19:03:55.233Z,7.97
2019-02-16T19:04:55.205Z,7.97
2019-02-16T19:05:55.196Z,7.90
2019-02-16T19:06:55.183Z,7.87
2019-02-16T19:07:55.174Z,7.87
2019-02-16T19:08:55.171Z,7.84
2019-02-16T19:09:55.150Z,7.89
2019-02-16T19:10:55.140Z,7.89
2019-02-16T19:11:55.131Z,7.78
2019-02-16T19:12:57.426Z,7.77
2019-02-16T19:13:55.108Z,7.79
2019-02-16T19:14:55.112Z,7.69
2019-02-16T19:15:55.085Z,7.75
2019-02-16T19:16:55.073Z,7.67
2019-02-16T19:17:55.069Z,7.72
2019-02-16T19:18:55.063Z,7.82
2019-02-16T19:19:55.043Z,7.60
2019-02-16T19:20:55.042Z,7.58
2019-02-16T19:21:55.019Z,7.58
2019-02-16T19:22:55.012Z,7.67
2019-02-16T19:23:55.000Z,7.56
2019-02-16T19:24:54.988Z,7.53
2019-02-16T19:25:55.012Z,7.45
2019-02-16T19:26:54.977Z,7.42
2019-02-16T19:27:54.954Z,7.24
2019-02-16T19:28:54.950Z,7.15
2019-02-16T19:29:54.935Z,7.01
2019-02-16T19:30:54.944Z,7.05
2019-02-16T19:31:54.932Z,6.99
2019-02-16T19:32:54.917Z,6.89
2019-02-16T19:33:54.909Z,6.94
2019-02-16T19:34:54.882Z,6.94
2019-02-16T19:35:54.885Z,6.98
2019-02-16T19:36:54.860Z,7.09
2019-02-16T19:37:54.846Z,7.04
2019-02-16T19:38:54.849Z,7.07
2019-02-16T19:39:54.825Z,7.08
2019-02-16T19:40:54.813Z,7.04
2019-02-16T19:41:54.808Z,7.09
2019-02-16T19:42:54.792Z,7.07
2019-02-16T19:43:54.781Z,7.15
2019-02-16T19:44:54.784Z,7.05
2019-02-16T19:45:54.760Z,7.12
2019-02-16T19:46:54.753Z,7.05
2019-02-16T19:47:54.764Z,7.07
2019-02-16T19:48:54.730Z,7.01
2019-02-16T19:49:54.733Z,7.04
2019-02-16T19:50:54.730Z,6.95
2019-02-16T19:51:54.696Z,7.02
2019-02-16T19:52:54.693Z,6.90
2019-02-16T19:53:54.677Z,6.83
2019-02-16T19:54:54.664Z,6.79
2019-02-16T19:55:54.654Z,6.73
2019-02-16T19:56:54.666Z,6.71
2019-02-16T19:57:54.635Z,6.63
2019-02-16T19:58:54.622Z,6.59
2019-02-16T19:59:54.619Z,6.65
2019-02-16T20:00:54.603Z,6.62
2019-02-16T20:01:54.590Z,6.54
2019-02-16T20:02:54.599Z,6.53
2019-02-16T20:03:54.574Z,6.54
2019-02-16T20:04:54.561Z,6.47
2019-02-16T20:05:56.143Z,6.50
2019-02-16T20:06:54.542Z,6.41
2019-02-16T20:07:54.527Z,6.32
2019-02-16T20:08:54.527Z,6.36
2019-02-16T20:09:54.504Z,6.38
2019-02-16T20:10:54.504Z,6.36
2019-02-16T20:11:54.487Z,6.36
2019-02-16T20:12:54.483Z,6.40
2019-02-16T20:13:54.461Z,6.36
2019-02-16T20:14:54.463Z,6.41
2019-02-16T20:15:54.452Z,6.41
2019-02-16T20:16:54.439Z,6.44
2019-02-16T20:17:54.421Z,6.40
2019-02-16T20:18:54.409Z,6.40
2019-02-16T20:19:54.401Z,6.41
2019-02-16T20:20:54.398Z,6.38
2019-02-16T20:21:54.376Z,6.35
2019-02-16T20:22:54.380Z,6.43
2019-02-16T20:23:54.378Z,6.40
2019-02-16T20:24:54.346Z,6.35
2019-02-16T20:25:54.341Z,6.36
2019-02-16T20:26:54.334Z,6.29
2019-02-16T20:27:54.315Z,6.16
2019-02-16T20:28:54.327Z,6.19
2019-02-16T20:29:54.288Z,6.18
2019-02-16T20:30:54.277Z,6.10
2019-02-16T20:31:54.270Z,6.16
2019-02-16T20:32:54.267Z,6.06
2019-02-16T20:33:54.248Z,6.03
2019-02-16T20:34:54.242Z,6.00
2019-02-16T20:35:54.222Z,6.01
2019-02-16T20:36:54.211Z,6.03
2019-02-16T20:37:54.204Z,5.96
2019-02-16T20:38:54.201Z,5.96
2019-02-16T20:39:54.178Z,6.00
2019-02-16T20:40:54.169Z,5.89
2019-02-16T20:41:54.248Z,5.91
2019-02-16T20:42:54.145Z,5.86
2019-02-16T20:43:54.140Z,5.81
2019-02-16T20:44:54.137Z,5.83
2019-02-16T20:45:54.120Z,5.77
2019-02-16T20:46:54.105Z,5.73
2019-02-16T20:47:54.097Z,5.59
2019-02-16T20:48:54.099Z,5.43
2019-02-16T20:49:54.070Z,5.45
2019-02-16T20:50:54.081Z,5.38
2019-02-16T20:51:54.052Z,5.34
2019-02-16T20:52:54.038Z,5.31
2019-02-16T20:53:54.026Z,5.35
2019-02-16T20:54:54.016Z,5.43
2019-02-16T20:55:54.006Z,5.45
2019-02-16T20:56:54.025Z,5.53
2019-02-16T20:57:53.986Z,5.52
2019-02-16T20:58:53.979Z,5.48
2019-02-16T20:59:53.964Z,5.56
2019-02-16T21:00:53.967Z,5.63
2019-02-16T21:01:53.943Z,5.52
2019-02-16T21:02:53.943Z,5.48
2019-02-16T21:03:53.922Z,5.48
2019-02-16T21:04:53.912Z,5.57
2019-02-16T21:05:53.906Z,5.59
2019-02-16T21:06:53.899Z,5.56
2019-02-16T21:07:53.880Z,5.57
2019-02-16T21:08:53.885Z,5.53
2019-02-16T21:09:53.865Z,5.49
2019-02-16T21:10:53.899Z,5.43
2019-02-16T21:11:53.846Z,5.53
2019-02-16T21:12:53.828Z,5.50
2019-02-16T21:13:53.818Z,5.49
2019-02-16T21:14:53.817Z,5.49
2019-02-16T21:15:53.797Z,5.50
2019-02-16T21:16:53.786Z,5.53
2019-02-16T21:17:53.777Z,5.55
2019-02-16T21:18:53.766Z,5.50
2019-02-16T21:19:53.754Z,5.49
2019-02-16T21:20:53.756Z,5.63
2019-02-16T21:21:53.738Z,5.52
2019-02-16T21:22:56.094Z,5.50
2019-02-16T21:23:53.713Z,5.49
2019-02-16T21:24:53.703Z,5.40
2019-02-16T21:25:53.692Z,5.48
2019-02-16T21:26:53.691Z,5.32
2019-02-16T21:27:57.995Z,5.28
2019-02-16T21:28:53.677Z,5.17
2019-02-16T21:29:53.655Z,5.04
2019-02-16T21:30:53.641Z,5.01
2019-02-16T21:31:53.630Z,4.91
2019-02-16T21:32:53.631Z,4.86
2019-02-16T21:33:53.611Z,4.89
2019-02-16T21:34:53.597Z,4.76
2019-02-16T21:35:53.589Z,4.75
2019-02-16T21:36:53.581Z,4.91
2019-02-16T21:37:53.569Z,4.84
2019-02-16T21:39:02.725Z,4.80
2019-02-16T21:39:54.544Z,4.91
2019-02-16T21:40:53.539Z,4.98
2019-02-16T21:41:53.542Z,4.92
2019-02-16T21:42:53.513Z,4.98
2019-02-16T21:43:53.503Z,4.98
2019-02-16T21:44:53.531Z,5.02
2019-02-16T21:45:53.481Z,4.98
2019-02-16T21:46:53.498Z,4.99
2019-02-16T21:47:53.462Z,4.99
2019-02-16T21:48:53.478Z,4.95
2019-02-16T21:49:54.047Z,5.01
2019-02-16T21:50:53.439Z,4.98
2019-02-16T21:51:53.417Z,5.07
2019-02-16T21:52:53.414Z,5.05
2019-02-16T21:53:53.398Z,4.98
2019-02-16T21:54:53.385Z,4.95
2019-02-16T21:55:53.376Z,5.02
2019-02-16T21:56:53.382Z,4.95
2019-02-16T21:57:53.356Z,4.95
2019-02-16T21:58:53.347Z,4.95
2019-02-16T21:59:53.342Z,4.99
2019-02-16T22:00:53.321Z,4.99
2019-02-16T22:01:53.310Z,4.98
2019-02-16T22:02:53.310Z,4.94
2019-02-16T22:03:53.291Z,4.98
2019-02-16T22:04:53.283Z,4.94
2019-02-16T22:05:53.267Z,4.98
2019-02-16T22:06:53.255Z,4.95
2019-02-16T22:07:53.246Z,5.02
2019-02-16T22:08:53.250Z,4.96
2019-02-16T22:09:53.228Z,4.98
2019-02-16T22:10:53.215Z,5.02
2019-02-16T22:11:53.202Z,5.01
2019-02-16T22:12:53.191Z,4.96
2019-02-16T22:13:53.181Z,4.92
2019-02-16T22:14:53.186Z,4.86
2019-02-16T22:15:53.161Z,4.92
2019-02-16T22:16:53.154Z,4.88
2019-02-16T22:17:53.141Z,4.79
2019-02-16T22:18:53.127Z,4.83
2019-02-16T22:19:53.115Z,4.73
2019-02-16T22:20:53.129Z,4.75
2019-02-16T22:21:53.095Z,4.69
2019-02-16T22:22:53.083Z,4.69
2019-02-16T22:23:53.077Z,4.65
2019-02-16T22:24:53.071Z,4.59
2019-02-16T22:25:53.054Z,4.65
2019-02-16T22:26:53.052Z,4.57
2019-02-16T22:27:53.029Z,4.58
2019-02-16T22:28:53.023Z,4.64
2019-02-16T22:29:53.013Z,4.50
2019-02-16T22:30:52.996Z,4.59
2019-02-16T22:31:53.013Z,4.64
2019-02-16T22:32:52.998Z,4.62
2019-02-16T22:33:52.963Z,4.61
2019-02-16T22:34:52.951Z,4.64
2019-02-16T22:35:52.946Z,4.59
2019-02-16T22:36:52.930Z,4.61
2019-02-16T22:37:52.918Z,4.57
2019-02-16T22:38:52.922Z,4.51
2019-02-16T22:39:52.897Z,4.43
2019-02-16T22:40:52.887Z,4.51
2019-02-16T22:41:52.877Z,4.43
2019-02-16T22:42:52.865Z,4.43
2019-02-16T22:43:52.856Z,4.46
2019-02-16T22:44:52.867Z,4.44
2019-02-16T22:45:52.834Z,4.43
2019-02-16T22:46:52.936Z,4.37
2019-02-16T22:47:52.810Z,4.43
2019-02-16T22:48:52.799Z,4.36
2019-02-16T22:49:52.792Z,4.24
2019-02-16T22:50:52.797Z,4.15
2019-02-16T22:51:52.767Z,4.08
2019-02-16T22:52:52.760Z,4.03
2019-02-16T22:53:52.746Z,4.07
2019-02-16T22:54:52.734Z,4.08
2019-02-16T22:55:52.730Z,4.01
2019-02-16T22:56:52.742Z,4.00
2019-02-16T22:57:52.702Z,3.86
2019-02-16T22:58:52.691Z,3.92
2019-02-16T22:59:52.691Z,3.78
2019-02-16T23:00:52.669Z,3.79
2019-02-16T23:01:52.664Z,3.78
2019-02-16T23:02:52.666Z,3.83
2019-02-16T23:03:52.638Z,3.72
2019-02-16T23:04:52.627Z,3.82
2019-02-16T23:05:52.618Z,3.88
2019-02-16T23:06:52.606Z,3.98
2019-02-16T23:07:52.597Z,3.89
2019-02-16T23:08:52.601Z,4.07
2019-02-16T23:09:52.578Z,3.88
2019-02-16T23:10:52.572Z,3.89
2019-02-16T23:11:52.552Z,4.03
2019-02-16T23:12:52.542Z,3.90
2019-02-16T23:13:52.540Z,3.94
2019-02-16T23:14:52.534Z,4.00
2019-02-16T23:15:52.514Z,3.97
2019-02-16T23:16:52.515Z,4.06
2019-02-16T23:17:52.498Z,4.06
2019-02-16T23:18:52.478Z,4.07
2019-02-16T23:19:52.467Z,4.03
2019-02-16T23:20:52.471Z,3.94
2019-02-16T23:21:52.461Z,3.92
2019-02-16T23:22:52.436Z,3.88
2019-02-16T23:23:52.429Z,3.98
2019-02-16T23:24:52.422Z,3.85
2019-02-16T23:25:52.408Z,3.90
2019-02-16T23:26:52.416Z,3.80
2019-02-16T23:27:52.386Z,3.76
2019-02-16T23:28:52.375Z,3.82
2019-02-16T23:29:52.377Z,3.68
2019-02-16T23:30:52.351Z,3.72
2019-02-16T23:31:52.341Z,3.75
2019-02-16T23:32:52.343Z,3.68
2019-02-16T23:33:52.320Z,3.72
2019-02-16T23:34:52.316Z,3.71
2019-02-16T23:35:52.303Z,3.68
2019-02-16T23:36:52.293Z,3.54
2019-02-16T23:37:52.278Z,3.52
2019-02-16T23:38:52.285Z,3.53
2019-02-16T23:39:52.257Z,3.49
2019-02-16T23:40:52.253Z,3.57
2019-02-16T23:41:52.236Z,3.54
2019-02-16T23:42:52.231Z,3.44
2019-02-16T23:43:52.214Z,3.27
2019-02-16T23:44:52.214Z,3.31
2019-02-16T23:45:52.225Z,3.31
2019-02-16T23:46:52.185Z,3.40
2019-02-16T23:47:52.175Z,3.44
2019-02-16T23:48:52.165Z,3.46
2019-02-16T23:49:52.170Z,3.36
2019-02-16T23:50:52.154Z,3.34
2019-02-16T23:51:52.131Z,3.27
2019-02-16T23:52:52.122Z,3.23
2019-02-16T23:53:52.111Z,3.06
2019-02-16T23:54:52.100Z,3.10
2019-02-16T23:55:52.091Z,3.16
2019-02-16T23:56:52.089Z,3.24
2019-02-16T23:57:52.067Z,3.21
2019-02-16T23:58:52.068Z,3.16
2019-02-16T23:59:52.046Z,3.27
